Aviation Digital Data Service (ADDS)

Output produced by METARs form (0211 UTC 24 November 2017)
found at http://www.aviationweather.gov/adds/metars/
 
EFTP 240150Z AUTO 16011KT 3200 BR VCSH BKN003 OVC005 02/02 Q1000
EFTP 240120Z AUTO 15013KT 2900 BR BKN002 OVC004 02/02 Q1000
EFTP 240050Z AUTO 15012KT 2300 BR BKN001 OVC003 02/02 Q1000
EFTP 240020Z AUTO 15012KT 1700 BR OVC001 02/02 Q1001
EFTP 232350Z AUTO 15013KT 110V180 1300 BR OVC001 02/01 Q1001
EFTP 232320Z AUTO 14014G24KT 1800 BR OVC001 01/01 Q1001
EFTP 232250Z AUTO 14013KT 2300 BR BKN001 OVC003 01/01 Q1002
EFTP 232220Z AUTO 15011KT 2400 BR BKN001 OVC003 01/01 Q1002
EFTP 232150Z AUTO 15013KT 2300 BR BKN001 01/01 Q1002
EFTP 232120Z AUTO 15011KT 1800 BR BKN001 01/01 Q1003
EFTP 232050Z AUTO 14013KT 1300 BR OVC001 01/01 Q1002
EFTP 232020Z AUTO 14015KT 1000 BR OVC001 01/01 Q1002
EFTP 231950Z AUTO 14014KT 1300 BR OVC001 01/01 Q1003
EFTP 231920Z AUTO 14015KT 1500 BR OVC001 01/01 Q1003
EFTP 231850Z AUTO 14014KT 1200 BR BKN001 01/01 Q1003
EFTP 231820Z AUTO 15014KT 2100 BR OVC001 01/00 Q1003
EFTP 231750Z AUTO 15013KT 1700 BR VCSH BKN001 01/00 Q1004
EFTP 231720Z AUTO 15013KT 1800 BR BKN001 OVC003 01/00 Q1004
EFTP 231650Z AUTO 15013KT 120V210 2600 BR BKN002 OVC004 01/00 Q1004
EFTP 231620Z AUTO 15013KT 3900 BR OVC003 01/00 Q1004
EFTP 231550Z AUTO 15012KT 110V180 4100 BR OVC004 01/00 Q1004
EFTP 231520Z AUTO 14016KT 4500 BR VCSH SCT004 OVC006 00/00 Q1003
EFTP 231450Z AUTO 15015G27KT 3400 BR SCT005 OVC007 00/M01 Q1004
EFTP 231420Z AUTO 14015G25KT 4400 BR SCT006 OVC008 00/M01 Q1004
EFTP 231350Z AUTO 14016G26KT 4000 BR FEW006 BKN008 OVC012 00/M01 Q1004
EFTP 231320Z 14017KT 3500 -SN FEW007 BKN013 00/M01 Q1004
EFTP 231250Z 14014KT 3000 -SN FEW008 BKN014 00/M01 Q1005
EFTP 231220Z 14014G24KT 4500 -SN FEW009 BKN014 00/M01 Q1005
EFTP 231150Z 14015KT 5000 -SN FEW008 BKN014 00/M01 Q1005
EFTP 231120Z 14014G25KT 6000 -SN FEW008 BKN014 00/M01 Q1006
EFTP 231050Z 13015KT 8000 -SN FEW007 BKN013 00/M02 Q1006
EFTP 231020Z 13014KT 1200 -SN DRSN BKN009 M01/M02 Q1007
EFTP 230950Z 13017G29KT 1000 R06/1400U R24/1500U -SN DRSN BKN009 M01/M02 Q1007
EFTP 230920Z 13017G28KT 1200 -SN DRSN FEW008 BKN013 M01/M02 Q1007
EFTP 230850Z 13016KT 090V160 1400 -SN DRSN BKN009 M01/M02 Q1008
EFTP 230820Z 13016KT 090V160 1200 -SN BKN009 M01/M02 Q1008
EFTP 230750Z 12013KT 100V170 1200 -SN BKN009 M01/M02 Q1009
EFTP 230720Z 12012G22KT 1200 -SN BKN009 M02/M03 Q1009
EFTP 230650Z 12012KT 080V150 1800 -SN BKN008 M02/M03 Q1009
EFTP 230620Z 11013G26KT 070V140 1500 -SN BKN009 M02/M03 Q1009
EFTP 230550Z AUTO 10012KT 2300 -SN FEW008 BKN010 OVC013 M02/M03 Q1010
EFTP 230520Z AUTO 11013G23KT 080V150 2500 -SN VCSH FEW008 BKN011 OVC014 M02/M04 Q1010
EFTP 230450Z AUTO 11014G24KT 2300 -SHSN FEW007 BKN010 OVC013 M02/M04 Q1010
EFTP 230420Z AUTO 11012KT 7000 -SHSN BKN008 OVC011 M02/M04 Q1011
EFTP 230350Z AUTO 11013KT 9999 BKN007 OVC009 M02/M04 Q1011
EFTP 230320Z AUTO 11013G25KT 9999 BKN007 OVC009 M02/M04 Q1012
EFTP 230250Z AUTO 10013KT 9999 BKN007 OVC009 M02/M03 Q1012
EFTP 230220Z AUTO 11014KT 9999 BKN007 OVC009 M02/M03 Q1013
EFTP 230150Z AUTO 11014KT 070V140 9999 BKN007 OVC009 M02/M03 Q1013
EFTP 230120Z AUTO 11012KT 9999 BKN006 BKN008 M02/M03 Q1013
EFTP 230050Z AUTO 11012KT 9999 OVC006 M02/M03 Q1014
EFTP 230020Z AUTO 11012KT 9999 BKN007 BKN009 M02/M03 Q1014
EFTP 222350Z AUTO 11012KT 9999 BKN007 OVC009 M02/M03 Q1014
EFTP 222320Z AUTO 11010KT 9999 BKN007 BKN009 M02/M03 Q1014
EFTP 222250Z AUTO 10012KT 9999 -SN OVC007 M02/M03 Q1015
EFTP 222220Z AUTO 10012KT 9999 -SN BKN007 BKN009 M02/M03 Q1015
EFTP 222150Z AUTO 10011KT 9999 -SN FEW007 OVC009 M02/M03 Q1015
EFTP 222120Z AUTO 10010KT 9999 -SN SCT007 BKN009 M01/M02 Q1015
EFTP 222050Z AUTO 11009KT 5000 -SG FEW006 BKN009 OVC011 M01/M02 Q1015
EFTP 222020Z AUTO 11009KT 5000 -SG BKN006 BKN008 M01/M02 Q1015
EFTP 221950Z AUTO 10010KT 9000 -SG SCT005 OVC007 M01/M02 Q1015
EFTP 221920Z AUTO 10011KT 9999 SCT005 BKN007 M01/M02 Q1015
EFTP 221850Z AUTO 11009KT 9999 OVC005 M01/M02 Q1015
EFTP 221820Z AUTO 09009KT 9999 BKN005 M01/M02 Q1015
EFTP 221750Z AUTO 09010KT 9999 BKN006 OVC008 M01/M02 Q1015
EFTP 221720Z AUTO 09008KT 9999 BKN006 M01/M02 Q1015
EFTP 221650Z AUTO 09009KT 9999 BKN006 OVC008 M01/M02 Q1015
EFTP 221620Z AUTO 09009KT 9999 BKN006 BKN008 M01/M02 Q1015
EFTP 221550Z AUTO 09009KT 9999 BKN006 OVC008 M01/M01 Q1015
EFTP 221520Z AUTO 07011KT 9999 SCT006 BKN008 M01/M02 Q1015
EFTP 221450Z AUTO 08008KT 9999 -SHSN FEW006 SCT009 OVC011 00/M01 Q1015
EFTP 221420Z AUTO 08008KT 8000 -SG FEW005 SCT008 BKN011 BKN021 00/M01 Q1015